Terminal Aerodrome Forecast
Issued by NWS Melbourne, FL

Home | Current Version | Previous Version | Text Only | Print | Product List | Glossary On
Versions: 1 2 3 4 5 6 7 8 9 10 11 12 13 14 15 16 17
000
FTUS42 KMLB 222100 AAA
TAFDAB
TAF AMD
KDAB 222101Z 2221/2318 VRB06KT P6SM VCTS SCT020CB BKN050 OVC100
      TEMPO 2221/2224 3SM TSRA BKN025CB OVC040
     FM230000 12004KT 6SM -RA SCT050 BKN150
     FM230400 VRB03KT P6SM VCSH FEW030 SCT050 BKN250=

USA.gov is the U.S. government's official web portal to all federal, state and local government web resources and services.